createdAt,value
2019-06-26T00:00:13.786Z,21.23
2019-06-26T00:05:11.743Z,19.80
2019-06-26T00:07:41.087Z,24.18
2019-06-26T00:10:10.598Z,27.60
2019-06-26T00:12:40.119Z,24.35
2019-06-26T00:15:10.197Z,27.25
2019-06-26T00:17:39.857Z,25.55
2019-06-26T00:20:09.684Z,33.73
2019-06-26T00:22:39.044Z,30.57
2019-06-26T00:25:08.928Z,29.70
2019-06-26T00:27:38.335Z,29.35
2019-06-26T00:30:08.553Z,34.13
2019-06-26T00:32:37.919Z,33.23
2019-06-26T00:35:07.290Z,32.15
2019-06-26T00:37:36.910Z,36.53
2019-06-26T00:40:07.162Z,38.55
2019-06-26T00:42:36.525Z,46.33
2019-06-26T00:45:07.122Z,34.50
2019-06-26T00:47:36.734Z,35.20
2019-06-26T00:50:10.493Z,33.85
2019-06-26T00:52:40.147Z,42.83
2019-06-26T00:55:09.622Z,41.25
2019-06-26T00:57:38.975Z,41.75
2019-06-26T01:00:09.840Z,43.63
2019-06-26T01:02:40.596Z,41.58
2019-06-26T01:05:11.944Z,42.75
2019-06-26T01:07:41.600Z,39.80
2019-06-26T01:10:12.737Z,51.35
2019-06-26T01:12:42.160Z,47.73
2019-06-26T01:15:11.982Z,48.28
2019-06-26T01:17:41.327Z,48.02
2019-06-26T01:20:11.117Z,59.15
2019-06-26T01:22:40.734Z,52.13
2019-06-26T01:25:10.140Z,50.73
2019-06-26T01:27:39.725Z,55.50
2019-06-26T01:30:10.321Z,56.18
2019-06-26T01:32:39.915Z,53.20
2019-06-26T01:35:09.632Z,56.20
2019-06-26T01:37:39.225Z,52.78
2019-06-26T01:40:09.129Z,53.40
2019-06-26T01:42:38.563Z,54.27
2019-06-26T01:45:08.434Z,57.75
2019-06-26T01:47:37.952Z,60.33
2019-06-26T01:50:08.521Z,56.53
2019-06-26T01:52:37.870Z,50.08
2019-06-26T01:55:07.468Z,59.95
2019-06-26T01:57:37.781Z,56.85
2019-06-26T02:00:09.294Z,58.55
2019-06-26T02:02:38.740Z,57.25
2019-06-26T02:05:08.417Z,54.70
2019-06-26T02:07:37.946Z,59.75
2019-06-26T02:10:07.970Z,62.95
2019-06-26T02:12:38.675Z,63.30
2019-06-26T02:15:09.250Z,61.08
2019-06-26T02:17:38.589Z,62.15
2019-06-26T02:20:08.153Z,62.08
2019-06-26T02:22:37.499Z,60.23
2019-06-26T02:25:06.997Z,60.23
2019-06-26T02:27:36.417Z,59.70
2019-06-26T02:30:07.398Z,56.30
2019-06-26T02:32:36.838Z,53.87
2019-06-26T02:35:09.904Z,56.88
2019-06-26T02:37:38.631Z,54.98
2019-06-26T02:40:09.583Z,57.75
2019-06-26T02:42:39.201Z,60.23
2019-06-26T02:45:09.386Z,56.90
2019-06-26T02:47:39.024Z,56.60
2019-06-26T02:50:10.271Z,52.35
2019-06-26T02:52:39.706Z,56.23
2019-06-26T02:55:09.789Z,53.28
2019-06-26T02:57:39.163Z,52.88
2019-06-26T03:00:08.871Z,59.05
2019-06-26T03:02:38.394Z,52.93
2019-06-26T03:05:07.859Z,54.93
2019-06-26T03:07:37.430Z,51.88
2019-06-26T03:10:09.785Z,52.70
2019-06-26T03:12:39.362Z,51.47
2019-06-26T03:15:09.870Z,53.38
2019-06-26T03:17:54.259Z,51.02
2019-06-26T03:20:12.955Z,52.35
2019-06-26T03:22:42.317Z,51.83
2019-06-26T03:25:11.651Z,53.75
2019-06-26T03:27:40.991Z,60.52
2019-06-26T03:30:10.606Z,52.03
2019-06-26T03:32:39.952Z,53.13
2019-06-26T03:35:09.349Z,54.88
2019-06-26T03:37:38.688Z,56.45
2019-06-26T03:40:08.600Z,58.87
2019-06-26T03:42:38.172Z,51.18
2019-06-26T03:45:24.206Z,53.38
2019-06-26T03:47:39.431Z,57.35
2019-06-26T03:50:09.624Z,53.68
2019-06-26T03:52:39.079Z,53.73
2019-06-26T03:55:08.618Z,56.65
2019-06-26T03:57:37.987Z,51.77
2019-06-26T04:00:08.311Z,54.13
2019-06-26T04:02:37.640Z,60.63
2019-06-26T04:05:07.217Z,51.88
2019-06-26T04:07:37.624Z,52.25
2019-06-26T04:10:09.180Z,52.43
2019-06-26T04:12:38.764Z,49.45
2019-06-26T04:15:08.437Z,52.88
2019-06-26T04:17:37.993Z,51.63
2019-06-26T04:20:08.175Z,49.50
2019-06-26T04:22:37.516Z,54.53
2019-06-26T04:25:08.783Z,54.53
2019-06-26T04:27:38.111Z,56.48
2019-06-26T04:30:10.436Z,52.17
2019-06-26T04:32:40.044Z,49.53
2019-06-26T04:35:09.894Z,49.88
2019-06-26T04:37:39.303Z,54.15
2019-06-26T04:40:09.983Z,53.63
2019-06-26T04:42:39.680Z,53.00
2019-06-26T04:45:09.504Z,54.08
2019-06-26T04:47:39.110Z,57.90
2019-06-26T04:50:08.751Z,56.37
2019-06-26T04:52:38.128Z,63.42
2019-06-26T04:55:08.327Z,61.80
2019-06-26T04:57:37.702Z,61.53
2019-06-26T05:00:09.556Z,65.03
2019-06-26T05:02:38.975Z,67.53
2019-06-26T05:05:09.091Z,66.28
2019-06-26T05:07:38.461Z,69.53
2019-06-26T05:10:10.821Z,72.90
2019-06-26T05:12:40.618Z,69.45
2019-06-26T05:15:10.659Z,67.10
2019-06-26T05:17:40.010Z,76.37
2019-06-26T05:20:09.729Z,72.05
2019-06-26T05:22:39.211Z,66.07
2019-06-26T05:25:09.941Z,67.42
2019-06-26T05:27:39.241Z,67.25
2019-06-26T05:30:11.675Z,73.40
2019-06-26T05:32:40.994Z,70.55
2019-06-26T05:35:10.921Z,72.12
2019-06-26T05:37:40.493Z,74.85
2019-06-26T05:40:13.537Z,77.00
2019-06-26T05:42:42.902Z,78.52
2019-06-26T05:45:14.380Z,82.22
2019-06-26T05:47:44.678Z,82.97
2019-06-26T05:50:14.849Z,78.52
2019-06-26T05:52:44.229Z,81.92
2019-06-26T05:55:14.877Z,75.35
2019-06-26T05:57:48.357Z,83.45
2019-06-26T06:00:16.915Z,82.02
2019-06-26T06:02:46.303Z,84.25
2019-06-26T06:05:16.141Z,81.82
2019-06-26T06:07:45.699Z,82.88
2019-06-26T06:10:15.376Z,89.72
2019-06-26T06:12:44.788Z,84.05
2019-06-26T06:15:15.193Z,86.63
2019-06-26T06:17:44.538Z,91.22
2019-06-26T06:20:14.447Z,85.60
2019-06-26T06:22:43.786Z,88.60
2019-06-26T06:25:14.122Z,88.82
2019-06-26T06:27:43.455Z,92.25
2019-06-26T06:30:13.489Z,85.55
2019-06-26T06:32:42.778Z,86.80
2019-06-26T06:35:12.278Z,93.72
2019-06-26T06:37:41.616Z,92.37
2019-06-26T06:40:11.368Z,88.42
2019-06-26T06:42:40.708Z,93.75
2019-06-26T06:45:10.233Z,85.87
2019-06-26T06:47:39.596Z,89.50
2019-06-26T06:50:09.381Z,89.60
2019-06-26T06:52:38.971Z,89.22
2019-06-26T06:55:08.471Z,87.22
2019-06-26T06:57:37.836Z,88.72
2019-06-26T07:00:08.279Z,92.12
2019-06-26T07:02:37.867Z,86.97
2019-06-26T07:05:07.866Z,91.42
2019-06-26T07:07:37.278Z,89.25
2019-06-26T07:10:09.549Z,85.30
2019-06-26T07:12:39.160Z,94.22
2019-06-26T07:15:09.456Z,92.22
2019-06-26T07:17:38.801Z,87.22
2019-06-26T07:20:08.285Z,83.50
2019-06-26T07:22:37.924Z,85.12
2019-06-26T07:25:07.745Z,87.55
2019-06-26T07:27:37.083Z,86.10
2019-06-26T07:30:07.325Z,86.78
2019-06-26T07:32:36.665Z,92.22
2019-06-26T07:35:06.666Z,87.80
2019-06-26T07:37:37.043Z,92.97
2019-06-26T07:40:07.518Z,86.30
2019-06-26T07:42:36.825Z,88.33
2019-06-26T07:45:06.503Z,85.97
2019-06-26T07:47:43.155Z,79.35
2019-06-26T07:50:08.066Z,85.50
2019-06-26T07:52:37.610Z,90.62
2019-06-26T07:55:11.817Z,83.20
2019-06-26T07:57:39.588Z,85.70
2019-06-26T08:00:09.541Z,86.87
2019-06-26T08:02:38.872Z,90.90
2019-06-26T08:05:09.086Z,82.53
2019-06-26T08:07:39.695Z,82.45
2019-06-26T08:10:09.823Z,83.75
2019-06-26T08:12:39.186Z,89.52
2019-06-26T08:15:08.846Z,82.22
2019-06-26T08:17:38.235Z,81.28
2019-06-26T08:20:08.029Z,82.25
2019-06-26T08:22:37.368Z,82.55
2019-06-26T08:25:07.883Z,93.90
2019-06-26T08:27:38.022Z,87.55
2019-06-26T08:30:10.605Z,91.15
2019-06-26T08:32:39.971Z,89.45
2019-06-26T08:35:09.594Z,83.65
2019-06-26T08:37:39.287Z,88.40
2019-06-26T08:40:10.004Z,86.35
2019-06-26T08:42:39.374Z,84.37
2019-06-26T08:45:10.300Z,85.97
2019-06-26T08:47:39.917Z,88.17
2019-06-26T08:50:10.468Z,88.78
2019-06-26T08:52:39.886Z,85.87
2019-06-26T08:55:10.327Z,80.30
2019-06-26T08:57:40.020Z,85.15
2019-06-26T09:00:11.538Z,88.42
2019-06-26T09:02:41.208Z,91.00
2019-06-26T09:05:11.694Z,90.10
2019-06-26T09:07:41.047Z,84.58
2019-06-26T09:10:10.764Z,77.80
2019-06-26T09:12:40.101Z,83.78
2019-06-26T09:15:09.670Z,82.95
2019-06-26T09:17:39.025Z,89.77
2019-06-26T09:20:08.879Z,86.92
2019-06-26T09:22:38.252Z,83.67
2019-06-26T09:25:21.063Z,85.25
2019-06-26T09:27:40.136Z,85.35
2019-06-26T09:30:09.911Z,91.28
2019-06-26T09:32:39.640Z,89.92
2019-06-26T09:35:09.292Z,93.55
2019-06-26T09:37:38.690Z,84.65
2019-06-26T09:40:08.811Z,81.10
2019-06-26T09:42:38.522Z,77.20
2019-06-26T09:45:08.170Z,79.20
2019-06-26T09:47:38.630Z,78.62
2019-06-26T09:50:09.283Z,80.70
2019-06-26T09:52:38.991Z,75.00
2019-06-26T09:55:09.645Z,79.47
2019-06-26T09:57:39.017Z,77.60
2019-06-26T10:00:11.917Z,79.10
2019-06-26T10:02:41.351Z,83.58
2019-06-26T10:05:13.479Z,79.03
2019-06-26T10:07:42.839Z,77.15
2019-06-26T10:10:12.633Z,61.02
2019-06-26T10:12:42.001Z,83.95
2019-06-26T10:15:11.978Z,76.12
2019-06-26T10:17:41.631Z,78.42
2019-06-26T10:20:11.015Z,76.20
2019-06-26T10:22:40.461Z,76.97
2019-06-26T10:25:11.413Z,69.70
2019-06-26T10:27:41.454Z,78.05
2019-06-26T10:30:11.469Z,74.37
2019-06-26T10:32:41.246Z,87.42
2019-06-26T10:35:10.847Z,71.97
2019-06-26T10:37:40.562Z,67.90
2019-06-26T10:40:10.043Z,66.33
2019-06-26T10:42:39.628Z,69.97
2019-06-26T10:45:09.325Z,63.48
2019-06-26T10:47:39.937Z,59.48
2019-06-26T10:50:10.162Z,66.10
2019-06-26T10:52:39.653Z,59.42
2019-06-26T10:55:09.606Z,53.55
2019-06-26T10:57:38.978Z,51.50
2019-06-26T11:00:12.311Z,59.38
2019-06-26T11:02:42.262Z,46.25
2019-06-26T11:05:12.075Z,53.05
2019-06-26T11:07:41.427Z,52.30
2019-06-26T11:10:11.522Z,49.95
2019-06-26T11:12:40.894Z,47.25
2019-06-26T11:15:12.639Z,45.03
2019-06-26T11:17:42.539Z,46.73
2019-06-26T11:20:15.342Z,51.83
2019-06-26T11:22:45.167Z,45.75
2019-06-26T11:25:14.850Z,33.98
2019-06-26T11:27:44.234Z,46.90
2019-06-26T11:30:14.638Z,45.33
2019-06-26T11:32:44.012Z,38.60
2019-06-26T11:35:15.383Z,48.17
2019-06-26T11:37:45.229Z,42.30
2019-06-26T11:40:15.288Z,38.23
2019-06-26T11:42:44.651Z,34.90
2019-06-26T11:45:14.469Z,41.80
2019-06-26T11:47:46.026Z,33.20
2019-06-26T11:50:17.123Z,38.10
2019-06-26T11:52:46.485Z,48.70
2019-06-26T11:55:16.882Z,39.23
2019-06-26T11:57:46.431Z,23.85
2019-06-26T12:00:17.794Z,20.55
2019-06-26T12:02:47.166Z,27.62
2019-06-26T12:05:16.774Z,38.30
2019-06-26T12:07:46.156Z,40.60
2019-06-26T12:10:16.144Z,32.10
2019-06-26T12:12:45.775Z,36.90
2019-06-26T12:15:16.057Z,30.10
2019-06-26T12:17:45.656Z,35.98
2019-06-26T12:20:19.017Z,38.55
2019-06-26T12:22:46.512Z,38.00
2019-06-26T12:25:15.955Z,40.10
2019-06-26T12:27:45.301Z,28.02
2019-06-26T12:30:14.721Z,21.82
2019-06-26T12:33:01.477Z,29.05
2019-06-26T12:35:15.440Z,23.87
2019-06-26T12:37:44.774Z,27.13
2019-06-26T12:40:14.552Z,23.67
2019-06-26T12:42:43.885Z,28.38
2019-06-26T12:45:13.324Z,19.23
2019-06-26T12:47:42.772Z,21.40
2019-06-26T12:50:14.703Z,17.05
2019-06-26T12:52:44.048Z,18.23
2019-06-26T12:55:13.801Z,22.52
2019-06-26T12:57:43.173Z,25.90
2019-06-26T13:00:13.326Z,22.87
2019-06-26T13:02:42.731Z,13.28
2019-06-26T13:05:12.459Z,15.75
2019-06-26T13:07:41.790Z,23.42
2019-06-26T13:10:12.170Z,20.75
2019-06-26T13:12:41.503Z,15.83
2019-06-26T13:15:11.228Z,21.42
2019-06-26T13:17:40.576Z,21.82
2019-06-26T13:20:10.769Z,17.35
2019-06-26T13:22:40.167Z,15.72
2019-06-26T13:25:10.652Z,21.07
2019-06-26T13:27:40.124Z,21.27
2019-06-26T13:30:09.916Z,15.83
2019-06-26T13:32:40.091Z,15.85
2019-06-26T13:35:09.566Z,16.77
2019-06-26T13:37:38.937Z,13.43
2019-06-26T13:40:08.507Z,10.35
2019-06-26T13:42:37.837Z,14.00
2019-06-26T13:45:07.842Z,13.50
2019-06-26T13:47:37.168Z,15.80
2019-06-26T13:50:07.732Z,14.05
2019-06-26T13:52:37.076Z,32.53
2019-06-26T13:55:07.491Z,18.00
2019-06-26T13:57:36.822Z,14.80
2019-06-26T14:00:07.144Z,13.85
2019-06-26T14:02:36.471Z,13.90
2019-06-26T14:05:09.584Z,13.08
2019-06-26T14:07:39.214Z,13.08
2019-06-26T14:10:09.767Z,12.78
2019-06-26T14:12:39.152Z,11.78
2019-06-26T14:15:09.369Z,10.58
2019-06-26T14:17:38.969Z,13.62
2019-06-26T14:20:09.577Z,13.62
2019-06-26T14:22:39.328Z,11.78
2019-06-26T14:25:09.304Z,10.90
2019-06-26T14:27:39.663Z,13.93
2019-06-26T14:30:09.368Z,11.73
2019-06-26T14:32:38.973Z,10.20
2019-06-26T14:35:08.550Z,15.03
2019-06-26T14:37:37.890Z,22.58
2019-06-26T14:40:08.927Z,15.25
2019-06-26T14:42:38.263Z,12.88
2019-06-26T14:45:08.520Z,11.93
2019-06-26T14:47:37.884Z,18.70
2019-06-26T14:50:07.813Z,13.28
2019-06-26T14:52:37.415Z,16.97
2019-06-26T14:55:09.647Z,13.25
2019-06-26T14:57:38.977Z,12.20
2019-06-26T15:00:09.336Z,10.55
2019-06-26T15:02:38.651Z,11.90
2019-06-26T15:05:09.380Z,9.30
2019-06-26T15:07:38.979Z,14.43
2019-06-26T15:10:10.024Z,10.82
2019-06-26T15:12:40.354Z,9.78
2019-06-26T15:15:11.239Z,8.75
2019-06-26T15:17:40.594Z,9.10
2019-06-26T15:20:10.193Z,7.30
2019-06-26T15:22:39.549Z,9.15
2019-06-26T15:25:08.986Z,8.33
2019-06-26T15:27:38.321Z,13.35
2019-06-26T15:30:08.347Z,9.95
2019-06-26T15:32:37.923Z,12.95
2019-06-26T15:35:08.573Z,9.63
2019-06-26T15:37:38.345Z,8.68
2019-06-26T15:40:08.547Z,8.75
2019-06-26T15:42:38.206Z,10.08
2019-06-26T15:45:07.986Z,10.90
2019-06-26T15:47:37.348Z,10.68
2019-06-26T15:50:11.126Z,10.43
2019-06-26T15:52:41.485Z,8.48
2019-06-26T15:55:10.923Z,11.63
2019-06-26T15:57:40.294Z,9.30
2019-06-26T16:00:09.887Z,12.15
2019-06-26T16:02:39.262Z,10.95
2019-06-26T16:05:08.970Z,12.98
2019-06-26T16:07:38.318Z,14.00
2019-06-26T16:10:08.373Z,10.82
2019-06-26T16:12:37.700Z,9.15
2019-06-26T16:15:07.466Z,10.28
2019-06-26T16:17:50.543Z,7.60
2019-06-26T16:20:20.441Z,8.45
2019-06-26T16:22:49.773Z,9.10
2019-06-26T16:25:19.136Z,10.72
2019-06-26T16:28:04.301Z,8.38
2019-06-26T16:30:19.625Z,9.75
2019-06-26T16:32:50.315Z,11.85
2019-06-26T16:35:20.678Z,9.13
2019-06-26T16:37:50.245Z,9.73
2019-06-26T16:40:20.819Z,8.53
2019-06-26T16:42:50.161Z,9.45
2019-06-26T16:45:21.055Z,12.13
2019-06-26T16:47:50.424Z,8.70
2019-06-26T16:50:19.845Z,9.58
2019-06-26T16:52:50.230Z,8.30
2019-06-26T16:55:19.912Z,7.70
2019-06-26T16:57:49.515Z,8.58
2019-06-26T17:00:19.012Z,11.95
2019-06-26T17:02:48.381Z,11.35
2019-06-26T17:05:17.820Z,15.40
2019-06-26T17:07:47.171Z,12.10
2019-06-26T17:10:17.658Z,12.58
2019-06-26T17:12:47.019Z,10.20
2019-06-26T17:15:17.098Z,11.43
2019-06-26T17:17:46.707Z,12.28
2019-06-26T17:20:16.900Z,8.00
2019-06-26T17:22:46.243Z,12.28
2019-06-26T17:25:15.716Z,11.30
2019-06-26T17:27:45.062Z,10.20
2019-06-26T17:30:14.662Z,13.18
2019-06-26T17:32:44.102Z,12.88
2019-06-26T17:35:13.673Z,11.08
2019-06-26T17:37:43.298Z,12.00
2019-06-26T17:40:13.122Z,13.03
2019-06-26T17:42:42.459Z,10.13
2019-06-26T17:45:12.343Z,9.35
2019-06-26T17:47:41.699Z,9.95
2019-06-26T17:50:11.522Z,12.20
2019-06-26T17:52:41.118Z,12.47
2019-06-26T17:55:11.657Z,9.15
2019-06-26T17:57:41.016Z,10.13
2019-06-26T18:00:12.064Z,9.48
2019-06-26T18:02:41.465Z,9.58
2019-06-26T18:05:12.478Z,11.30
2019-06-26T18:07:41.803Z,11.18
2019-06-26T18:10:11.582Z,10.63
2019-06-26T18:12:40.912Z,9.00
2019-06-26T18:15:11.293Z,9.13
2019-06-26T18:17:40.614Z,8.95
2019-06-26T18:20:10.017Z,13.32
2019-06-26T18:22:39.333Z,11.28
2019-06-26T18:25:09.108Z,8.20
2019-06-26T18:27:38.713Z,7.92
2019-06-26T18:30:08.987Z,11.33
2019-06-26T18:32:38.319Z,8.53
2019-06-26T18:35:07.986Z,8.75
2019-06-26T18:37:37.309Z,10.98
2019-06-26T18:40:08.292Z,11.70
2019-06-26T18:42:37.871Z,11.15
2019-06-26T18:45:07.642Z,11.03
2019-06-26T18:47:37.010Z,11.08
2019-06-26T18:50:08.446Z,8.68
2019-06-26T18:52:37.801Z,8.75
2019-06-26T18:55:10.186Z,10.80
2019-06-26T18:57:39.541Z,9.65
2019-06-26T19:00:09.328Z,10.10
2019-06-26T19:02:38.732Z,8.40
2019-06-26T19:05:08.831Z,7.08
2019-06-26T19:07:38.153Z,8.63
2019-06-26T19:10:08.910Z,8.58
2019-06-26T19:12:38.597Z,11.18
2019-06-26T19:15:08.264Z,10.13
2019-06-26T19:17:37.826Z,7.20
2019-06-26T19:20:08.991Z,8.15
2019-06-26T19:22:38.321Z,9.83
2019-06-26T19:25:10.367Z,8.58
2019-06-26T19:27:39.971Z,6.83
2019-06-26T19:30:11.496Z,9.73
2019-06-26T19:32:40.811Z,6.15
2019-06-26T19:35:18.967Z,7.22
2019-06-26T19:37:41.981Z,8.38
2019-06-26T19:40:12.281Z,6.97
2019-06-26T19:42:41.644Z,7.87
2019-06-26T19:45:11.692Z,5.37
2019-06-26T19:47:41.061Z,8.20
2019-06-26T19:50:11.219Z,5.42
2019-06-26T19:52:40.901Z,7.00
2019-06-26T19:55:10.604Z,6.50
2019-06-26T19:57:39.942Z,8.03
2019-06-26T20:00:10.320Z,7.25
2019-06-26T20:02:39.776Z,5.30
2019-06-26T20:05:10.879Z,6.92
2019-06-26T20:07:40.201Z,6.75
2019-06-26T20:10:10.368Z,8.93
2019-06-26T20:12:39.963Z,7.60
2019-06-26T20:15:09.733Z,8.50
2019-06-26T20:17:39.063Z,5.50
2019-06-26T20:20:08.958Z,6.78
2019-06-26T20:22:38.479Z,9.58
2019-06-26T20:25:08.943Z,9.98
2019-06-26T20:27:39.803Z,6.40
2019-06-26T20:30:10.331Z,7.28
2019-06-26T20:32:41.043Z,7.00
2019-06-26T20:35:10.609Z,6.17
2019-06-26T20:37:40.303Z,9.18
2019-06-26T20:40:11.031Z,7.30
2019-06-26T20:42:40.518Z,7.67
2019-06-26T20:45:10.689Z,7.45
2019-06-26T20:47:40.075Z,11.05
2019-06-26T20:50:09.610Z,6.92
2019-06-26T20:52:39.206Z,7.85
2019-06-26T20:55:08.789Z,6.08
2019-06-26T20:57:38.122Z,7.75
2019-06-26T21:00:08.867Z,5.67
2019-06-26T21:02:39.863Z,8.80
2019-06-26T21:05:10.501Z,9.95
2019-06-26T21:07:40.433Z,8.93
2019-06-26T21:10:10.535Z,10.85
2019-06-26T21:12:40.214Z,8.53
2019-06-26T21:15:10.380Z,10.15
2019-06-26T21:17:39.750Z,6.53
2019-06-26T21:20:10.958Z,8.18
2019-06-26T21:22:40.302Z,11.08
2019-06-26T21:25:18.168Z,7.53
2019-06-26T21:27:41.293Z,8.53
2019-06-26T21:30:11.014Z,7.45
2019-06-26T21:32:40.854Z,8.63
2019-06-26T21:35:10.549Z,7.12
2019-06-26T21:37:40.238Z,10.08
2019-06-26T21:40:09.974Z,10.08
2019-06-26T21:42:39.323Z,11.57
2019-06-26T21:45:13.286Z,10.80
2019-06-26T21:47:42.641Z,6.40
2019-06-26T21:50:13.754Z,8.05
2019-06-26T21:52:43.228Z,9.00
2019-06-26T21:55:12.838Z,10.80
2019-06-26T21:57:59.995Z,7.53
2019-06-26T22:00:47.965Z,8.40
2019-06-26T22:03:35.420Z,8.70
2019-06-26T22:06:12.235Z,8.55
2019-06-26T22:08:43.523Z,10.13
2019-06-26T22:11:14.205Z,7.22
2019-06-26T22:13:43.989Z,12.03
2019-06-26T22:16:13.394Z,7.65
2019-06-26T22:18:42.952Z,6.75
2019-06-26T22:21:12.602Z,6.92
2019-06-26T22:23:42.197Z,10.58
2019-06-26T22:26:14.111Z,8.70
2019-06-26T22:28:42.590Z,7.37
2019-06-26T22:31:11.918Z,7.42
2019-06-26T22:33:41.662Z,8.10
2019-06-26T22:36:11.751Z,7.85
2019-06-26T22:38:41.118Z,7.22
2019-06-26T22:41:10.480Z,5.72
2019-06-26T22:43:40.043Z,10.40
2019-06-26T22:46:09.454Z,8.03
2019-06-26T22:48:38.989Z,8.08
2019-06-26T22:51:08.751Z,10.15
2019-06-26T22:53:38.086Z,8.60
2019-06-26T22:56:08.365Z,8.20
2019-06-26T22:58:37.883Z,8.20
2019-06-26T23:01:07.220Z,7.50
2019-06-26T23:03:36.690Z,8.30
2019-06-26T23:06:06.397Z,7.60
2019-06-26T23:08:35.747Z,11.25
2019-06-26T23:11:05.196Z,6.85
2019-06-26T23:13:34.540Z,7.95
2019-06-26T23:16:03.923Z,7.75
2019-06-26T23:18:33.497Z,6.25
2019-06-26T23:21:03.131Z,8.70
2019-06-26T23:23:32.471Z,7.22
2019-06-26T23:26:01.917Z,10.18
2019-06-26T23:28:31.242Z,7.30
2019-06-26T23:31:00.588Z,9.85
2019-06-26T23:33:30.195Z,12.07
2019-06-26T23:35:59.570Z,10.90
2019-06-26T23:38:28.904Z,9.55
2019-06-26T23:40:58.283Z,11.90
2019-06-26T23:43:27.861Z,11.53
2019-06-26T23:45:57.493Z,6.85
2019-06-26T23:48:27.797Z,11.40
2019-06-26T23:50:57.416Z,10.30
2019-06-26T23:53:26.758Z,8.95
2019-06-26T23:55:56.123Z,11.10
2019-06-26T23:58:25.493Z,7.25
